Time;durP1;ratioP1;P1;durP2;ratioP2;P2;SDS_P1;SDS_P2;PMS_P1;PMS_P2;Temp;Humidity;BMP_temperature;BMP_pressure;BME280_temperature;BME280_humidity;BME280_pressure;Samples;Min_cycle;Max_cycle;Signal;HPM_P1;HPM_P2
2023/10/01 00:00:43;;;;;;;16.27;7.53;;;11.80;99.90;;;;;;2086848;28;20028;-74
2023/10/01 00:01:44;;;;;;;16.40;7.68;;;11.80;99.90;;;;;;2090659;28;20020;-74
2023/10/01 00:02:45;;;;;;;17.05;7.10;;;11.80;99.90;;;;;;2084387;28;20039;-74
2023/10/01 00:03:45;;;;;;;15.35;7.68;;;11.90;99.90;;;;;;2080579;28;20526;-75
2023/10/01 00:04:46;;;;;;;15.27;7.30;;;11.90;99.90;;;;;;2069916;28;20034;-74
2023/10/01 00:05:46;;;;;;;15.23;6.95;;;11.90;99.90;;;;;;2089316;28;20087;-74
2023/10/01 00:06:47;;;;;;;14.10;7.38;;;11.90;99.90;;;;;;2092528;28;20154;-74
2023/10/01 00:07:49;;;;;;;15.95;7.43;;;11.90;99.90;;;;;;2091563;28;20032;-74
2023/10/01 00:08:49;;;;;;;15.65;7.50;;;11.90;99.90;;;;;;2089535;28;20286;-74
2023/10/01 00:09:50;;;;;;;14.95;7.40;;;11.80;99.90;;;;;;2088342;28;20032;-75
2023/10/01 00:10:51;;;;;;;16.10;7.55;;;11.80;99.90;;;;;;2088352;28;20048;-74
2023/10/01 00:11:51;;;;;;;16.77;7.82;;;11.80;99.90;;;;;;2091800;28;20106;-75
2023/10/01 00:12:54;;;;;;;13.55;7.05;;;11.80;99.90;;;;;;2087772;28;20040;-73
2023/10/01 00:13:54;;;;;;;17.80;7.70;;;11.80;99.90;;;;;;2092431;28;20475;-74
2023/10/01 00:14:55;;;;;;;15.77;7.30;;;11.80;99.90;;;;;;2088230;28;20021;-74
2023/10/01 00:15:55;;;;;;;13.73;7.53;;;11.70;99.90;;;;;;2077308;28;20025;-74
2023/10/01 00:16:56;;;;;;;14.63;7.57;;;11.70;99.90;;;;;;2079748;28;20450;-74
2023/10/01 00:17:57;;;;;;;15.25;7.40;;;11.70;99.90;;;;;;2092191;28;20024;-74
2023/10/01 00:18:59;;;;;;;16.50;7.35;;;11.70;99.90;;;;;;2087503;28;20237;-74
2023/10/01 00:20:01;;;;;;;14.57;7.60;;;11.70;99.90;;;;;;2085040;28;20527;-74
2023/10/01 00:21:02;;;;;;;11.93;7.65;;;11.70;99.90;;;;;;2078988;28;20682;-68
2023/10/01 00:22:03;;;;;;;13.27;7.18;;;11.70;99.90;;;;;;2088581;28;20091;-75
2023/10/01 00:23:04;;;;;;;14.88;7.45;;;11.70;99.90;;;;;;2090565;28;20459;-73
2023/10/01 00:24:04;;;;;;;15.98;7.70;;;11.70;99.90;;;;;;2091746;28;20138;-74
2023/10/01 00:25:07;;;;;;;12.75;7.45;;;11.70;99.90;;;;;;2083247;28;20103;-72
2023/10/01 00:26:08;;;;;;;12.88;6.80;;;11.70;99.90;;;;;;2091903;28;20021;-72
2023/10/01 00:27:09;;;;;;;11.95;7.13;;;11.60;99.90;;;;;;2088735;28;20014;-72
2023/10/01 00:28:10;;;;;;;17.27;7.25;;;11.60;99.90;;;;;;2092076;28;20059;-72
2023/10/01 00:29:10;;;;;;;15.35;7.07;;;11.60;99.90;;;;;;2087950;28;20116;-72
2023/10/01 00:30:11;;;;;;;15.40;7.80;;;11.60;99.90;;;;;;2088088;28;20027;-72
2023/10/01 00:31:13;;;;;;;17.02;7.22;;;11.60;99.90;;;;;;2084078;28;20025;-71
2023/10/01 00:32:14;;;;;;;11.70;6.82;;;11.60;99.90;;;;;;2091820;28;20047;-72
2023/10/01 00:33:15;;;;;;;14.68;6.82;;;11.60;99.90;;;;;;2084340;28;20021;-72
2023/10/01 00:34:16;;;;;;;11.80;6.70;;;11.60;99.90;;;;;;2083693;28;20037;-72
2023/10/01 00:35:17;;;;;;;14.63;7.10;;;11.50;99.90;;;;;;2091834;28;20024;-72
2023/10/01 00:36:17;;;;;;;13.95;7.15;;;11.50;99.90;;;;;;2092001;28;20287;-72
2023/10/01 00:37:18;;;;;;;16.02;6.95;;;11.50;99.90;;;;;;2085465;28;20029;-73
2023/10/01 00:38:19;;;;;;;14.75;7.00;;;11.50;99.90;;;;;;2091016;28;20482;-72
2023/10/01 00:39:20;;;;;;;16.88;6.93;;;11.50;99.90;;;;;;2088714;28;20040;-73
2023/10/01 00:40:21;;;;;;;15.35;7.05;;;11.50;99.90;;;;;;2084772;28;20088;-73
2023/10/01 00:41:22;;;;;;;12.63;7.00;;;11.60;99.90;;;;;;2091522;28;20040;-72
2023/10/01 00:42:24;;;;;;;17.40;7.07;;;11.60;99.90;;;;;;2088194;28;20031;-73
2023/10/01 00:43:25;;;;;;;15.73;7.05;;;11.50;99.90;;;;;;2091259;28;20018;-72
2023/10/01 00:44:26;;;;;;;15.48;6.93;;;11.60;99.90;;;;;;2091251;28;20064;-72
2023/10/01 00:45:27;;;;;;;14.90;7.22;;;11.50;99.90;;;;;;2086209;28;20036;-72
2023/10/01 00:46:28;;;;;;;13.93;6.55;;;11.50;99.90;;;;;;2089524;28;20051;-72
2023/10/01 00:47:31;;;;;;;15.57;6.78;;;11.60;99.90;;;;;;2083428;28;20539;-72
2023/10/01 00:48:32;;;;;;;10.85;6.68;;;11.60;99.90;;;;;;2089443;28;20443;-72
2023/10/01 00:49:39;;;;;;;14.38;6.90;;;11.60;99.90;;;;;;2089921;28;20495;-72
2023/10/01 00:50:41;;;;;;;16.80;7.38;;;11.60;99.90;;;;;;2091734;28;20025;-72
2023/10/01 00:51:43;;;;;;;13.65;6.60;;;11.60;99.90;;;;;;2092239;28;20033;-72
2023/10/01 00:52:47;;;;;;;12.57;6.03;;;11.60;99.90;;;;;;2089517;28;20019;-71
2023/10/01 00:53:49;;;;;;;15.00;6.68;;;11.60;99.90;;;;;;2083973;28;20097;-72
2023/10/01 00:54:56;;;;;;;16.83;6.50;;;11.60;99.90;;;;;;2092351;28;20047;-71
2023/10/01 00:56:01;;;;;;;16.00;6.60;;;11.60;99.90;;;;;;2091903;28;20031;-72
2023/10/01 00:57:02;;;;;;;16.35;6.70;;;11.60;99.90;;;;;;2091297;28;20663;-74
2023/10/01 00:58:03;;;;;;;12.27;6.35;;;11.60;99.90;;;;;;2087362;28;20979;-72
2023/10/01 00:59:04;;;;;;;15.32;6.57;;;11.60;99.90;;;;;;2091140;28;20496;-71
2023/10/01 01:00:13;;;;;;;13.95;6.68;;;11.60;99.90;;;;;;2079471;28;20016;-71
2023/10/01 01:01:13;;;;;;;15.30;6.90;;;11.60;99.90;;;;;;2083338;28;20037;-71
2023/10/01 01:02:15;;;;;;;16.30;6.93;;;11.60;99.90;;;;;;2086333;28;20421;-71
2023/10/01 01:03:22;;;;;;;14.07;6.53;;;11.60;99.90;;;;;;2087150;28;20032;-73
2023/10/01 01:04:23;;;;;;;12.15;6.43;;;11.60;99.90;;;;;;2084041;28;20480;-74
2023/10/01 01:05:25;;;;;;;15.30;6.78;;;11.50;99.90;;;;;;2089859;28;20582;-71
2023/10/01 01:06:30;;;;;;;15.73;6.68;;;11.60;99.90;;;;;;2089004;28;20484;-72
2023/10/01 01:07:32;;;;;;;13.18;6.38;;;11.50;99.90;;;;;;2080542;28;20025;-71
2023/10/01 01:08:46;;;;;;;14.63;6.65;;;11.50;99.90;;;;;;2081804;28;20029;-71
2023/10/01 01:09:48;;;;;;;15.27;6.70;;;11.50;99.90;;;;;;2087191;28;20223;-71
2023/10/01 01:10:51;;;;;;;14.95;6.85;;;11.50;99.90;;;;;;2074487;28;20025;-71
2023/10/01 01:11:52;;;;;;;14.60;6.80;;;11.40;99.90;;;;;;2083239;28;20029;-71
2023/10/01 01:12:54;;;;;;;18.95;7.00;;;11.50;99.90;;;;;;2077490;28;20021;-72
2023/10/01 01:13:57;;;;;;;10.93;6.40;;;11.40;99.90;;;;;;2076378;28;20504;-72
2023/10/01 01:14:58;;;;;;;11.77;7.05;;;11.40;99.90;;;;;;2091246;28;20473;-71
2023/10/01 01:16:00;;;;;;;15.75;6.57;;;11.40;99.90;;;;;;2091087;28;20029;-72
2023/10/01 01:17:00;;;;;;;17.15;7.18;;;11.40;99.90;;;;;;2086606;28;20473;-72
2023/10/01 01:18:07;;;;;;;17.42;7.00;;;11.30;99.90;;;;;;2091146;28;20029;-72
2023/10/01 01:19:09;;;;;;;12.60;6.65;;;11.30;99.90;;;;;;2083751;28;20546;-72
2023/10/01 01:20:13;;;;;;;14.20;6.82;;;11.30;99.90;;;;;;2068089;28;20281;-72
2023/10/01 01:21:14;;;;;;;13.73;6.60;;;11.30;99.90;;;;;;2090709;28;20479;-72
2023/10/01 01:22:28;;;;;;;15.85;7.00;;;11.30;99.90;;;;;;2091132;28;20021;-72
2023/10/01 01:23:30;;;;;;;15.65;7.32;;;11.40;99.90;;;;;;2078872;28;20087;-71
2023/10/01 01:24:31;;;;;;;14.55;6.85;;;11.40;99.90;;;;;;2079325;28;20033;-72
2023/10/01 01:25:33;;;;;;;17.02;6.82;;;11.40;99.90;;;;;;2091118;28;20040;-73
2023/10/01 01:26:33;;;;;;;15.93;7.32;;;11.40;99.90;;;;;;2086843;28;20115;-73
2023/10/01 01:27:34;;;;;;;13.10;7.10;;;11.30;99.90;;;;;;2088640;28;20110;-72
2023/10/01 01:28:36;;;;;;;15.25;7.20;;;11.30;99.90;;;;;;2086984;28;20490;-72
2023/10/01 01:29:44;;;;;;;14.63;6.97;;;11.30;99.90;;;;;;2089868;28;20453;-72
2023/10/01 01:30:47;;;;;;;14.63;6.88;;;11.30;99.90;;;;;;2067505;28;20045;-71
2023/10/01 01:32:02;;;;;;;15.68;7.03;;;11.30;99.90;;;;;;2075343;28;20066;-72
2023/10/01 01:33:03;;;;;;;14.10;6.93;;;11.30;99.90;;;;;;2092043;28;20046;-72
2023/10/01 01:34:05;;;;;;;15.07;7.63;;;11.30;99.90;;;;;;2084028;28;20451;-72
2023/10/01 01:35:06;;;;;;;13.45;7.30;;;11.30;99.90;;;;;;2091008;28;20034;-72
2023/10/01 01:36:12;;;;;;;13.45;7.07;;;11.30;99.90;;;;;;2085230;28;20456;-73
2023/10/01 01:37:46;;;;;;;16.23;7.20;;;11.30;99.90;;;;;;2090518;28;20024;-73
2023/10/01 01:39:26;;;;;;;15.07;7.15;;;11.30;99.90;;;;;;2091291;28;20047;-73
2023/10/01 01:40:31;;;;;;;16.33;7.10;;;11.30;99.90;;;;;;2082528;28;20212;-73
2023/10/01 01:41:32;;;;;;;18.30;7.45;;;11.20;99.90;;;;;;2089666;28;20029;-73
2023/10/01 01:42:33;;;;;;;13.88;7.43;;;11.20;99.90;;;;;;2089493;28;20108;-73
2023/10/01 01:43:38;;;;;;;15.70;7.78;;;11.20;99.90;;;;;;2091164;28;20017;-73
2023/10/01 01:44:38;;;;;;;16.02;7.60;;;11.20;99.90;;;;;;2087878;28;20025;-73
2023/10/01 01:45:40;;;;;;;19.48;7.72;;;11.20;99.90;;;;;;2088202;28;20471;-73
2023/10/01 01:46:49;;;;;;;15.60;7.18;;;11.20;99.90;;;;;;2083052;28;20049;-73
2023/10/01 01:47:50;;;;;;;16.13;7.47;;;11.10;99.90;;;;;;2091290;28;20110;-73
2023/10/01 01:48:52;;;;;;;16.25;7.15;;;11.10;99.90;;;;;;2087179;28;20405;-73
2023/10/01 01:50:07;;;;;;;17.23;7.80;;;11.10;99.90;;;;;;2082917;28;20024;-73
2023/10/01 01:51:08;;;;;;;11.50;7.10;;;11.10;99.90;;;;;;2083447;28;20124;-73
2023/10/01 01:52:11;;;;;;;18.00;7.55;;;11.10;99.90;;;;;;2091277;28;20025;-73
2023/10/01 01:53:12;;;;;;;12.85;7.40;;;11.10;99.90;;;;;;2087222;28;20380;-73
2023/10/01 01:54:12;;;;;;;17.88;7.38;;;11.10;99.90;;;;;;2090586;28;20064;-73
2023/10/01 01:55:26;;;;;;;16.55;7.40;;;11.10;99.90;;;;;;2091094;28;20021;-72
2023/10/01 01:56:27;;;;;;;14.55;7.25;;;11.10;99.90;;;;;;2092267;28;20434;-72
2023/10/01 01:57:30;;;;;;;13.93;7.28;;;11.20;99.90;;;;;;2091428;28;20511;-71
2023/10/01 01:58:32;;;;;;;16.30;7.38;;;11.20;99.90;;;;;;2077672;28;20030;-71
2023/10/01 01:59:34;;;;;;;17.00;7.82;;;11.20;99.90;;;;;;2079121;28;20033;-71
2023/10/01 02:00:37;;;;;;;16.50;7.18;;;11.20;99.90;;;;;;2087825;28;20314;-73
2023/10/01 02:01:38;;;;;;;12.50;7.10;;;11.20;99.90;;;;;;2088614;28;20080;-73
2023/10/01 02:02:39;;;;;;;14.55;7.30;;;11.20;99.90;;;;;;2083550;28;20012;-73
2023/10/01 02:03:44;;;;;;;14.75;7.30;;;11.20;99.90;;;;;;2090118;28;20036;-73
2023/10/01 02:05:01;;;;;;;16.27;7.70;;;11.20;99.90;;;;;;2079543;28;20548;-73
2023/10/01 02:06:06;;;;;;;15.18;7.45;;;11.20;99.90;;;;;;2082251;28;20084;-73
2023/10/01 02:07:07;;;;;;;14.27;7.20;;;11.20;99.90;;;;;;2085246;28;20063;-73
2023/10/01 02:08:10;;;;;;;15.00;7.22;;;11.20;99.90;;;;;;2089682;28;20371;-73
2023/10/01 02:09:14;;;;;;;16.15;7.40;;;11.20;99.90;;;;;;2083629;28;20040;-73
2023/10/01 02:10:16;;;;;;;14.48;7.05;;;11.20;99.90;;;;;;2086950;28;20029;-71
2023/10/01 02:11:18;;;;;;;16.20;7.15;;;11.20;99.90;;;;;;2082719;28;20024;-73
2023/10/01 02:12:29;;;;;;;16.45;7.22;;;11.20;99.90;;;;;;2078766;28;20060;-75
2023/10/01 02:13:32;;;;;;;15.07;7.20;;;11.20;99.90;;;;;;2084292;28;20131;-73
2023/10/01 02:14:35;;;;;;;15.60;7.05;;;11.20;99.90;;;;;;2090955;28;20043;-73
2023/10/01 02:15:35;;;;;;;14.07;6.90;;;11.20;99.90;;;;;;2082987;28;20025;-73
2023/10/01 02:16:37;;;;;;;15.98;7.22;;;11.20;99.90;;;;;;2091102;28;20937;-73
2023/10/01 02:17:39;;;;;;;15.38;7.15;;;11.20;99.90;;;;;;2087650;28;20036;-73
2023/10/01 02:18:41;;;;;;;14.43;7.30;;;11.20;99.90;;;;;;2091048;28;20032;-73
2023/10/01 02:19:46;;;;;;;16.13;7.20;;;11.20;99.90;;;;;;2090857;28;20030;-73
2023/10/01 02:20:51;;;;;;;13.02;7.20;;;11.20;99.90;;;;;;2082573;28;20037;-72
2023/10/01 02:22:00;;;;;;;13.63;7.00;;;11.20;99.90;;;;;;2090959;28;20028;-73
2023/10/01 02:23:02;;;;;;;12.38;6.63;;;11.20;99.90;;;;;;2090932;28;20128;-74
2023/10/01 02:24:03;;;;;;;15.98;7.20;;;11.20;99.90;;;;;;2082795;28;20064;-73
2023/10/01 02:25:04;;;;;;;16.13;7.15;;;11.10;99.90;;;;;;2086923;28;20459;-73
2023/10/01 02:26:06;;;;;;;14.23;6.60;;;11.10;99.90;;;;;;2091622;28;20103;-73
2023/10/01 02:27:09;;;;;;;14.00;7.32;;;11.10;99.90;;;;;;2088256;28;20459;-73
2023/10/01 02:28:15;;;;;;;15.85;6.72;;;11.10;99.90;;;;;;2086524;28;20037;-73
2023/10/01 02:29:16;;;;;;;14.80;7.22;;;11.10;99.90;;;;;;2082878;28;20029;-72
2023/10/01 02:30:21;;;;;;;15.57;7.20;;;11.10;99.90;;;;;;2087919;28;20029;-72
2023/10/01 02:31:23;;;;;;;16.48;7.25;;;11.10;99.90;;;;;;2084016;28;20123;-73
2023/10/01 02:32:24;;;;;;;12.70;6.72;;;11.10;99.90;;;;;;2086565;28;20029;-72
2023/10/01 02:33:33;;;;;;;15.80;7.20;;;11.10;99.90;;;;;;2091554;28;20391;-72
2023/10/01 02:34:36;;;;;;;14.90;7.03;;;11.10;99.90;;;;;;2086477;28;20079;-73
2023/10/01 02:35:40;;;;;;;14.43;6.90;;;11.10;99.90;;;;;;2090895;28;20605;-72
2023/10/01 02:36:42;;;;;;;13.63;6.85;;;11.10;99.90;;;;;;2091137;28;20638;-73
2023/10/01 02:37:43;;;;;;;11.32;6.60;;;11.10;99.90;;;;;;2090741;28;20122;-72
2023/10/01 02:38:45;;;;;;;13.43;6.72;;;11.10;99.90;;;;;;2090416;28;20527;-74
2023/10/01 02:39:46;;;;;;;13.57;7.03;;;11.20;99.90;;;;;;2091148;28;20024;-73
2023/10/01 02:40:48;;;;;;;13.35;6.65;;;11.20;99.90;;;;;;2085948;28;20538;-74
2023/10/01 02:43:08;;;;;;;15.07;6.60;;;11.20;99.90;;;;;;2083756;28;20037;-73
2023/10/01 02:44:11;;;;;;;13.38;6.80;;;11.20;99.90;;;;;;2089431;28;20039;-72
2023/10/01 02:45:30;;;;;;;12.80;6.28;;;11.20;99.90;;;;;;2088263;28;20075;-73
2023/10/01 02:46:31;;;;;;;15.60;6.82;;;11.20;99.90;;;;;;2082598;28;20210;-72
2023/10/01 02:47:31;;;;;;;13.38;6.70;;;11.30;99.90;;;;;;2074290;28;20451;-74
2023/10/01 02:48:32;;;;;;;14.05;6.60;;;11.20;99.90;;;;;;2082597;28;20040;-73
2023/10/01 02:49:33;;;;;;;13.32;6.78;;;11.20;99.90;;;;;;2086311;28;20043;-73
2023/10/01 02:50:36;;;;;;;16.05;6.70;;;11.20;99.90;;;;;;2078393;28;20026;-73
2023/10/01 02:51:40;;;;;;;13.55;6.75;;;11.20;99.90;;;;;;2088035;28;20040;-72
2023/10/01 02:52:43;;;;;;;13.73;6.63;;;11.20;99.90;;;;;;2086871;28;20135;-73
2023/10/01 02:54:03;;;;;;;13.43;6.90;;;11.20;99.90;;;;;;2089740;28;20036;-72
2023/10/01 02:55:06;;;;;;;14.23;6.75;;;11.20;99.90;;;;;;2087604;28;20384;-72
2023/10/01 02:56:12;;;;;;;13.32;6.60;;;11.20;99.90;;;;;;2090639;28;20361;-72
2023/10/01 02:57:20;;;;;;;12.93;6.85;;;11.20;99.90;;;;;;2079060;28;20076;-72
2023/10/01 02:58:27;;;;;;;15.50;6.88;;;11.20;99.90;;;;;;2087122;28;20028;-73
2023/10/01 02:59:28;;;;;;;16.92;6.88;;;11.30;99.90;;;;;;2085122;28;20182;-74
2023/10/01 03:00:32;;;;;;;14.05;6.95;;;11.20;99.90;;;;;;2089453;28;20033;-74
2023/10/01 03:01:34;;;;;;;15.82;7.25;;;11.30;99.90;;;;;;2090833;28;20036;-75
2023/10/01 03:02:38;;;;;;;13.07;6.72;;;11.20;99.90;;;;;;2092326;28;20025;-75
2023/10/01 03:03:39;;;;;;;12.02;7.18;;;11.30;99.90;;;;;;2086998;28;20032;-75
2023/10/01 03:04:40;;;;;;;13.27;6.80;;;11.30;99.90;;;;;;2084939;28;20124;-74
2023/10/01 03:05:53;;;;;;;13.55;6.68;;;11.30;99.90;;;;;;2079656;28;20151;-74
2023/10/01 03:06:55;;;;;;;16.00;6.72;;;11.20;99.90;;;;;;2072958;28;20036;-74
2023/10/01 03:08:03;;;;;;;13.75;6.32;;;11.20;99.90;;;;;;2091550;28;20517;-72
2023/10/01 03:09:04;;;;;;;12.10;6.68;;;11.20;99.90;;;;;;2083244;28;20025;-72
2023/10/01 03:10:16;;;;;;;12.07;6.57;;;11.30;99.90;;;;;;2088084;28;20056;-73
2023/10/01 03:11:16;;;;;;;12.13;6.77;;;11.30;99.90;;;;;;2086103;28;20040;-75
2023/10/01 03:12:35;;;;;;;12.80;6.53;;;11.30;99.90;;;;;;2086850;28;20275;-74
2023/10/01 03:13:36;;;;;;;15.65;6.88;;;11.40;99.90;;;;;;2085395;28;20598;-73
2023/10/01 03:14:42;;;;;;;11.57;6.40;;;11.30;99.90;;;;;;2086664;28;20307;-72
2023/10/01 03:15:51;;;;;;;13.68;6.90;;;11.30;99.90;;;;;;2090198;28;20498;-74
2023/10/01 03:17:07;;;;;;;14.20;6.60;;;11.30;99.90;;;;;;2088493;28;20031;-74
2023/10/01 03:19:26;;;;;;;14.38;6.85;;;11.20;99.90;;;;;;2087581;28;20034;-72
2023/10/01 03:23:01;;;;;;;11.73;6.80;;;11.20;99.90;;;;;;2090534;28;20025;-73
2023/10/01 03:24:04;;;;;;;11.43;6.32;;;11.30;99.90;;;;;;2090162;28;20559;-73
2023/10/01 03:25:12;;;;;;;13.82;6.50;;;11.30;99.90;;;;;;2088205;28;20055;-73
2023/10/01 03:26:13;;;;;;;14.93;6.72;;;11.30;99.90;;;;;;2087902;28;20029;-73
2023/10/01 03:27:39;;;;;;;10.57;5.93;;;11.40;99.90;;;;;;2091223;28;20548;-73
2023/10/01 03:29:14;;;;;;;;;;;11.40;99.90;;;;;;2088555;28;20268;-72
2023/10/01 03:30:09;;;;;;;16.02;6.55;;;11.40;99.90;;;;;;2083625;28;20250;-72
2023/10/01 03:31:12;;;;;;;13.93;6.50;;;11.50;99.90;;;;;;2083080;28;20037;-72
2023/10/01 03:32:28;;;;;;;13.65;6.60;;;11.50;99.90;;;;;;2090574;28;20392;-75
2023/10/01 03:33:30;;;;;;;12.35;6.32;;;11.50;99.90;;;;;;2081456;28;20033;-72
2023/10/01 03:34:31;;;;;;;12.75;6.88;;;11.40;99.90;;;;;;2085717;28;20045;-72
2023/10/01 03:35:31;;;;;;;12.90;6.60;;;11.50;99.90;;;;;;2088366;28;20125;-73
2023/10/01 03:36:32;;;;;;;13.73;6.25;;;11.50;99.90;;;;;;2086973;28;20033;-72
2023/10/01 03:37:39;;;;;;;13.20;6.85;;;11.50;99.90;;;;;;2082394;28;20041;-72
2023/10/01 03:38:44;;;;;;;13.98;6.68;;;11.60;99.90;;;;;;2082884;28;20468;-72
2023/10/01 03:39:52;;;;;;;14.88;6.68;;;11.60;99.90;;;;;;2090165;28;20028;-72
2023/10/01 03:41:08;;;;;;;16.30;6.65;;;11.60;99.90;;;;;;2084007;28;20035;-72
2023/10/01 03:43:18;;;;;;;13.95;6.80;;;11.60;99.90;;;;;;2083867;28;20029;-74
2023/10/01 03:44:58;;;;;;;12.45;6.50;;;11.60;99.90;;;;;;2088344;28;20025;-74
2023/10/01 03:45:52;;;;;;;;;;;11.60;99.90;;;;;;2086636;28;20045;-72
2023/10/01 03:46:52;;;;;;;16.08;6.68;;;11.50;99.90;;;;;;2087950;28;19958;-73
2023/10/01 03:47:58;;;;;;;13.25;6.20;;;11.50;99.90;;;;;;2084798;28;20086;-72
2023/10/01 03:49:59;;;;;;;11.73;6.50;;;11.60;99.90;;;;;;2087964;28;20037;-72
2023/10/01 03:51:00;;;;;;;12.63;6.82;;;11.60;99.90;;;;;;2088730;28;20040;-72
2023/10/01 03:52:01;;;;;;;14.25;7.10;;;11.60;99.90;;;;;;2092124;28;20498;-72
2023/10/01 03:53:10;;;;;;;9.63;5.93;;;11.60;99.90;;;;;;2090482;28;20116;-72
2023/10/01 03:54:14;;;;;;;14.07;6.50;;;11.60;99.90;;;;;;2092820;28;20135;-72
2023/10/01 03:55:27;;;;;;;13.45;6.13;;;11.60;99.90;;;;;;2088620;28;20476;-72
2023/10/01 03:56:30;;;;;;;12.40;6.45;;;11.60;99.90;;;;;;2086520;28;20511;-71
2023/10/01 03:57:30;;;;;;;12.85;6.50;;;11.60;99.90;;;;;;2092111;28;20651;-74
2023/10/01 03:58:36;;;;;;;13.57;6.13;;;11.60;99.90;;;;;;2090466;28;20121;-74
2023/10/01 03:59:37;;;;;;;12.95;5.97;;;11.60;99.90;;;;;;2079950;28;20755;-75
2023/10/01 04:01:58;;;;;;;12.63;6.30;;;11.60;99.90;;;;;;2091339;28;20062;-72
2023/10/01 04:03:00;;;;;;;10.27;6.07;;;11.60;99.90;;;;;;2087932;28;20047;-73
2023/10/01 04:04:01;;;;;;;15.77;6.60;;;11.50;99.90;;;;;;2085924;28;20029;-73
2023/10/01 04:05:06;;;;;;;14.32;6.43;;;11.50;99.90;;;;;;2092736;28;20024;-73
2023/10/01 04:06:07;;;;;;;14.27;6.40;;;11.50;99.90;;;;;;2092133;28;20032;-73
2023/10/01 04:07:10;;;;;;;13.50;6.25;;;11.60;99.90;;;;;;2079502;28;20052;-74
2023/10/01 04:08:12;;;;;;;15.50;6.80;;;11.60;99.90;;;;;;2082400;28;20343;-74
2023/10/01 04:09:18;;;;;;;14.05;6.60;;;11.60;99.90;;;;;;2084240;28;20036;-73
2023/10/01 04:10:28;;;;;;;12.15;6.00;;;11.60;99.90;;;;;;2088211;28;20094;-72
2023/10/01 04:12:54;;;;;;;11.30;6.25;;;11.50;99.90;;;;;;2092200;28;20502;-73
2023/10/01 04:14:07;;;;;;;13.77;6.63;;;11.50;99.90;;;;;;2092294;28;20033;-72
2023/10/01 04:15:09;;;;;;;14.10;6.80;;;11.60;99.90;;;;;;2102215;28;20505;-73
2023/10/01 04:16:15;;;;;;;14.02;6.40;;;11.60;99.90;;;;;;2100176;28;20057;-72
2023/10/01 04:17:19;;;;;;;10.93;6.05;;;11.60;99.90;;;;;;2091860;28;20025;-73
2023/10/01 04:18:21;;;;;;;14.27;6.35;;;11.60;99.90;;;;;;2092572;28;20043;-72
2023/10/01 04:19:24;;;;;;;13.13;6.72;;;11.60;99.90;;;;;;2088363;28;20031;-72
2023/10/01 04:20:28;;;;;;;13.65;6.90;;;11.60;99.90;;;;;;2088254;28;20044;-72
2023/10/01 04:21:29;;;;;;;12.88;6.55;;;11.60;99.90;;;;;;2092017;28;20120;-72
2023/10/01 04:22:29;;;;;;;11.10;6.28;;;11.60;99.90;;;;;;2084955;28;20667;-72
2023/10/01 04:23:32;;;;;;;12.38;6.28;;;11.70;99.90;;;;;;2088374;28;20036;-73
2023/10/01 04:24:34;;;;;;;13.50;6.40;;;11.70;99.90;;;;;;2092423;28;20082;-72
2023/10/01 04:25:36;;;;;;;12.75;6.40;;;11.70;99.90;;;;;;2092266;28;20032;-72
2023/10/01 04:26:37;;;;;;;13.27;6.32;;;11.80;99.90;;;;;;2090943;28;20488;-73
2023/10/01 04:27:42;;;;;;;13.10;6.00;;;11.80;99.90;;;;;;2085701;28;20060;-73
2023/10/01 04:28:54;;;;;;;12.75;6.38;;;11.80;99.90;;;;;;2084126;28;20503;-73
2023/10/01 04:29:58;;;;;;;15.40;6.55;;;11.80;99.90;;;;;;2072994;28;20392;-72
2023/10/01 04:31:03;;;;;;;11.07;6.13;;;11.80;99.90;;;;;;2088207;28;20162;-72
2023/10/01 04:32:04;;;;;;;13.05;6.47;;;11.80;99.90;;;;;;2091516;28;20441;-73
2023/10/01 04:33:17;;;;;;;11.48;6.13;;;11.90;99.90;;;;;;2083524;28;20029;-72
2023/10/01 04:34:20;;;;;;;14.65;6.03;;;11.80;99.90;;;;;;2091688;28;20515;-73
2023/10/01 04:35:22;;;;;;;12.90;6.20;;;11.90;99.90;;;;;;2088299;28;20617;-74
2023/10/01 04:36:22;;;;;;;12.07;6.10;;;11.80;99.90;;;;;;2087921;28;20041;-74
2023/10/01 04:37:36;;;;;;;15.02;6.60;;;11.90;99.90;;;;;;2091617;28;20107;-73
2023/10/01 04:38:38;;;;;;;12.50;6.38;;;11.90;99.90;;;;;;2086732;28;20032;-73
2023/10/01 04:39:39;;;;;;;11.73;6.03;;;11.80;99.90;;;;;;2084030;28;20124;-73
2023/10/01 04:40:39;;;;;;;11.55;6.00;;;11.80;99.90;;;;;;2087128;28;20055;-73
2023/10/01 04:41:41;;;;;;;12.20;6.10;;;11.80;99.90;;;;;;2083272;28;20040;-73
2023/10/01 04:42:43;;;;;;;15.20;6.28;;;11.70;99.90;;;;;;2087506;28;20051;-73
2023/10/01 04:44:27;;;;;;;12.85;6.43;;;11.80;99.90;;;;;;2090415;28;20955;-74
2023/10/01 04:45:22;;;;;;;13.63;6.30;;;11.70;99.90;;;;;;2088087;28;20043;-74
2023/10/01 04:46:30;;;;;;;19.85;6.38;;;11.70;99.90;;;;;;2087370;28;20222;-73
2023/10/01 04:47:31;;;;;;;11.10;6.20;;;11.80;99.90;;;;;;2087309;28;20082;-73
2023/10/01 04:48:33;;;;;;;13.07;6.68;;;11.70;99.90;;;;;;2092061;28;20198;-73
2023/10/01 04:49:39;;;;;;;14.30;6.10;;;11.70;99.90;;;;;;2091611;28;20028;-73
2023/10/01 04:50:40;;;;;;;14.32;6.47;;;11.70;99.90;;;;;;2086196;28;20029;-73
2023/10/01 04:51:47;;;;;;;12.60;6.15;;;11.70;99.90;;;;;;2080778;28;20120;-75
2023/10/01 04:52:47;;;;;;;10.98;5.97;;;11.70;99.90;;;;;;2081355;28;20027;-73
2023/10/01 04:53:52;;;;;;;13.85;6.00;;;11.70;99.90;;;;;;2086999;28;20403;-74
2023/10/01 04:54:52;;;;;;;13.63;6.07;;;11.80;99.90;;;;;;2085110;28;20033;-73
2023/10/01 04:56:06;;;;;;;13.10;5.82;;;11.80;99.90;;;;;;2085601;28;20036;-73
2023/10/01 04:57:07;;;;;;;11.73;6.18;;;11.80;99.90;;;;;;2091881;28;20029;-74
2023/10/01 04:58:14;;;;;;;12.25;6.03;;;11.80;99.90;;;;;;2092296;28;20048;-73
2023/10/01 04:59:16;;;;;;;13.45;6.07;;;11.80;99.90;;;;;;2090109;28;20389;-74
2023/10/01 05:00:21;;;;;;;14.57;6.00;;;11.80;99.90;;;;;;2087514;28;20424;-74
2023/10/01 05:01:24;;;;;;;14.80;6.47;;;11.80;99.90;;;;;;2091084;28;20071;-74
2023/10/01 05:02:26;;;;;;;14.45;6.32;;;11.80;99.90;;;;;;2087860;28;20052;-74
2023/10/01 05:03:39;;;;;;;12.85;6.57;;;11.80;99.90;;;;;;2091665;28;20046;-73
2023/10/01 05:04:41;;;;;;;12.20;6.03;;;11.80;99.90;;;;;;2085018;28;20685;-73
2023/10/01 05:05:42;;;;;;;11.40;6.28;;;11.80;99.90;;;;;;2081076;28;20488;-72
2023/10/01 05:06:43;;;;;;;13.65;6.30;;;11.80;99.90;;;;;;2089437;28;20058;-72
2023/10/01 05:07:45;;;;;;;13.98;6.20;;;11.80;99.90;;;;;;2089921;28;20086;-74
2023/10/01 05:08:50;;;;;;;13.38;6.35;;;11.90;99.90;;;;;;2087500;28;20488;-73
2023/10/01 05:09:50;;;;;;;14.98;6.43;;;11.90;99.90;;;;;;2088857;28;20506;-73
2023/10/01 05:10:56;;;;;;;13.95;6.50;;;11.90;99.90;;;;;;2087823;28;20072;-72
2023/10/01 05:11:56;;;;;;;12.10;6.28;;;11.90;99.90;;;;;;2091349;28;20102;-73
2023/10/01 05:13:02;;;;;;;12.77;6.10;;;11.90;99.90;;;;;;2091820;28;20136;-73
2023/10/01 05:14:06;;;;;;;12.48;6.30;;;11.90;99.90;;;;;;2080376;28;20017;-74
2023/10/01 05:15:17;;;;;;;13.35;6.20;;;11.90;99.90;;;;;;2084361;28;20171;-73
2023/10/01 05:16:20;;;;;;;12.73;6.18;;;11.90;99.90;;;;;;2087411;28;20029;-73
2023/10/01 05:17:30;;;;;;;11.73;5.93;;;12.00;99.90;;;;;;2088685;28;20112;-74
2023/10/01 05:18:33;;;;;;;12.88;5.75;;;12.00;99.90;;;;;;2081155;28;20456;-73
2023/10/01 05:19:37;;;;;;;11.88;5.95;;;12.00;99.90;;;;;;2087301;28;20591;-74
2023/10/01 05:20:38;;;;;;;13.93;6.40;;;12.00;99.90;;;;;;2092237;28;20044;-74
2023/10/01 05:21:46;;;;;;;13.90;5.97;;;12.10;99.90;;;;;;2088243;28;20051;-74
2023/10/01 05:22:50;;;;;;;13.52;5.88;;;12.10;99.90;;;;;;2092060;28;20479;-74
2023/10/01 05:23:54;;;;;;;11.63;6.18;;;12.00;99.90;;;;;;2085073;28;20577;-75
2023/10/01 05:24:55;;;;;;;11.18;5.82;;;12.00;99.90;;;;;;2087452;28;20075;-74
2023/10/01 05:25:59;;;;;;;11.52;6.30;;;12.00;99.90;;;;;;2088224;28;20031;-74
2023/10/01 05:27:08;;;;;;;15.05;6.18;;;12.10;99.90;;;;;;2092006;28;20406;-74
2023/10/01 05:28:23;;;;;;;13.32;6.07;;;12.10;99.90;;;;;;2086227;28;20439;-74
2023/10/01 05:29:25;;;;;;;14.80;6.28;;;12.10;99.90;;;;;;2092201;28;20040;-73
2023/10/01 05:30:36;;;;;;;14.52;5.88;;;12.10;99.90;;;;;;2092100;28;20036;-72
2023/10/01 05:31:39;;;;;;;15.02;6.13;;;12.10;99.90;;;;;;2083520;28;20025;-72
2023/10/01 05:32:51;;;;;;;17.15;6.50;;;12.10;99.90;;;;;;2078199;28;20032;-73
2023/10/01 05:33:52;;;;;;;13.80;6.45;;;12.10;99.90;;;;;;2086231;28;20032;-73
2023/10/01 05:34:52;;;;;;;13.32;5.75;;;12.10;99.90;;;;;;2083347;28;20074;-72
2023/10/01 05:36:03;;;;;;;12.85;5.82;;;12.10;99.90;;;;;;2087348;28;20090;-73
2023/10/01 05:37:12;;;;;;;11.88;6.50;;;12.10;99.90;;;;;;2088007;28;20028;-73
2023/10/01 05:38:14;;;;;;;10.93;6.03;;;12.10;99.90;;;;;;2087923;28;20467;-73
2023/10/01 05:39:16;;;;;;;21.90;13.57;;;12.20;99.90;;;;;;2085715;28;20191;-75
2023/10/01 05:40:17;;;;;;;41.00;27.30;;;12.10;99.90;;;;;;2085219;28;20506;-72